METAR Data
IDs: Format: Raw Decoded Include TAF

Data at: 0204 UTC 01 Mar 2021

EGXW 010050Z AUTO 08003KT 8000 BR NCD 02/01 Q1035